SNA weather

John Wayne Airport-Orange County Airport
Santa Ana, California, United States

Public forecast

Using degrees Fahrenheit for public forecast. Weather courtesy of forecast.io.

Current aviation weather report (METAR) for John Wayne Airport-Orange County Airport

Retrieved 2020/06/05 07:53 UTC (1 hour ago):

KSNA 050753Z AUTO 15005KT 10SM OVC015 19/14 A2982 RMK AO2 SLP098 T01890144 402220178

Aviation forecast (TAF) for John Wayne Airport-Orange County Airport

Retrieved 2020/06/05 06:22 UTC (3 hours ago):

TAF KSNA 050520Z 0506/0606 19005KT P6SM OVC015 FM051100 19008KT 6SM -DZ BR OVC010 FM051600 18006KT P6SM OVC015 FM052100 20009KT P6SM BKN020 FM060300 23008KT P6SM VCSH BKN028